Time;durP1;ratioP1;P1;durP2;ratioP2;P2;SDS_P1;SDS_P2;PMS_P1;PMS_P2;Temp;Humidity;BMP_temperature;BMP_pressure;BME280_temperature;BME280_humidity;BME280_pressure;Samples;Min_cycle;Max_cycle;Signal;HPM_P1;HPM_P2
2023/07/30 00:01:56;;;;;;;2.72;1.60;;;24.10;68.60;;;;;;4996771;28;20026;-72
2023/07/30 00:04:22;;;;;;;1.85;1.75;;;24.10;68.70;;;;;;4996177;28;20022;-72
2023/07/30 00:06:47;;;;;;;1.90;1.60;;;24.00;69.10;;;;;;4995910;28;20196;-72
2023/07/30 00:09:13;;;;;;;2.50;1.98;;;24.00;69.20;;;;;;4996240;28;20038;-72
2023/07/30 00:11:38;;;;;;;1.95;1.70;;;24.00;69.40;;;;;;4995932;28;20031;-72
2023/07/30 00:14:04;;;;;;;1.98;1.67;;;24.00;69.60;;;;;;4995944;28;20026;-72
2023/07/30 00:16:30;;;;;;;2.40;1.95;;;24.00;69.80;;;;;;4995476;28;20415;-72
2023/07/30 00:18:56;;;;;;;3.33;2.10;;;24.00;70.00;;;;;;4996120;28;20036;-73
2023/07/30 00:21:22;;;;;;;2.45;2.00;;;24.00;70.30;;;;;;4978544;28;20035;-72
2023/07/30 00:23:48;;;;;;;2.47;1.98;;;24.00;70.30;;;;;;4995633;28;20113;-72
2023/07/30 00:26:13;;;;;;;3.90;1.85;;;24.00;70.50;;;;;;4996076;28;20109;-72
2023/07/30 00:28:39;;;;;;;2.60;1.80;;;24.00;70.70;;;;;;4995509;28;20618;-73
2023/07/30 00:31:05;;;;;;;2.67;2.00;;;23.90;71.70;;;;;;4996189;28;20475;-72
2023/07/30 00:33:30;;;;;;;3.33;2.13;;;23.90;72.90;;;;;;4995770;28;20080;-76
2023/07/30 00:35:56;;;;;;;1.70;1.38;;;23.90;73.40;;;;;;4996192;28;20383;-72
2023/07/30 00:38:21;;;;;;;3.35;1.77;;;23.80;73.60;;;;;;4996134;28;20430;-72
2023/07/30 00:40:47;;;;;;;2.08;1.77;;;23.70;73.60;;;;;;4995372;28;20023;-72
2023/07/30 00:43:13;;;;;;;2.38;1.90;;;23.70;73.40;;;;;;4995323;28;20027;-72
2023/07/30 00:45:42;;;;;;;2.63;2.00;;;23.70;73.80;;;;;;4995336;28;20035;-73
2023/07/30 00:48:09;;;;;;;2.00;1.67;;;23.60;73.50;;;;;;4995641;28;20080;-72
2023/07/30 00:50:35;;;;;;;2.40;2.03;;;23.60;73.40;;;;;;4995164;28;20045;-73
2023/07/30 00:53:00;;;;;;;2.00;1.50;;;23.60;73.20;;;;;;4995856;28;20026;-72
2023/07/30 00:55:26;;;;;;;2.10;1.90;;;23.60;73.00;;;;;;4995843;28;20030;-72
2023/07/30 00:57:52;;;;;;;4.68;1.88;;;23.50;73.10;;;;;;4995059;28;20030;-72
2023/07/30 01:00:18;;;;;;;2.10;1.67;;;23.50;73.10;;;;;;4995694;28;20035;-71
2023/07/30 01:02:44;;;;;;;2.13;1.60;;;23.50;72.80;;;;;;4994941;28;20030;-72
2023/07/30 01:05:10;;;;;;;2.33;1.83;;;23.40;72.70;;;;;;4994953;28;20108;-72
2023/07/30 01:07:36;;;;;;;2.03;1.83;;;23.40;73.20;;;;;;4995034;28;20046;-72
2023/07/30 01:10:02;;;;;;;1.42;1.33;;;23.50;72.90;;;;;;4995133;28;20030;-72
2023/07/30 01:12:31;;;;;;;2.13;1.85;;;23.50;72.90;;;;;;4994996;28;20108;-72
2023/07/30 01:14:58;;;;;;;1.85;1.58;;;23.40;73.00;;;;;;4997154;28;20030;-72
2023/07/30 01:17:23;;;;;;;2.67;1.98;;;23.40;73.00;;;;;;4994808;28;20033;-72
2023/07/30 01:19:49;;;;;;;2.55;1.92;;;23.40;73.00;;;;;;4994372;28;20026;-72
2023/07/30 01:22:15;;;;;;;2.88;1.65;;;23.30;73.10;;;;;;4995053;28;20027;-72
2023/07/30 01:24:41;;;;;;;2.35;1.90;;;23.40;73.20;;;;;;4994542;28;20026;-72
2023/07/30 01:27:11;;;;;;;2.10;1.85;;;23.30;73.20;;;;;;4994591;28;20165;-72
2023/07/30 01:29:51;;;;;;;3.03;2.20;;;23.30;73.20;;;;;;4994585;28;20082;-73
2023/07/30 01:32:24;;;;;;;3.42;1.88;;;23.30;73.40;;;;;;4994822;28;20111;-72
2023/07/30 01:34:55;;;;;;;2.25;1.63;;;23.30;73.40;;;;;;4994482;28;20126;-73
2023/07/30 01:37:21;;;;;;;1.60;1.45;;;23.30;73.50;;;;;;4995192;28;20026;-73
2023/07/30 01:39:49;;;;;;;2.05;1.58;;;23.30;73.60;;;;;;4994222;28;20065;-72
2023/07/30 01:42:15;;;;;;;1.95;1.60;;;23.30;73.70;;;;;;4994343;28;20099;-72
2023/07/30 01:44:41;;;;;;;2.78;1.75;;;23.30;73.70;;;;;;4994189;28;20038;-73
2023/07/30 01:47:06;;;;;;;3.22;1.83;;;23.20;73.70;;;;;;4993977;28;20023;-73
2023/07/30 01:49:32;;;;;;;3.25;1.98;;;23.20;73.80;;;;;;4994098;28;20359;-74
2023/07/30 01:51:58;;;;;;;2.42;1.70;;;23.20;74.00;;;;;;4994044;28;20056;-72
2023/07/30 01:54:23;;;;;;;2.80;2.05;;;23.20;74.10;;;;;;4993522;28;20023;-72
2023/07/30 01:56:49;;;;;;;3.45;1.90;;;23.20;74.20;;;;;;4994114;28;20475;-72
2023/07/30 01:59:15;;;;;;;2.38;1.92;;;23.20;74.50;;;;;;4994133;28;20114;-72
2023/07/30 02:01:41;;;;;;;2.00;1.70;;;23.20;74.40;;;;;;4993954;28;20031;-72
2023/07/30 02:04:07;;;;;;;2.33;1.80;;;23.10;74.40;;;;;;4994503;28;20049;-72
2023/07/30 02:06:33;;;;;;;2.88;1.80;;;23.10;74.50;;;;;;4994073;28;20488;-72
2023/07/30 02:08:58;;;;;;;3.53;1.65;;;23.10;74.70;;;;;;4993810;28;20022;-72
2023/07/30 02:11:24;;;;;;;2.17;1.70;;;23.10;74.90;;;;;;4994160;28;20038;-72
2023/07/30 02:13:49;;;;;;;2.63;1.50;;;23.10;75.00;;;;;;4993438;28;20033;-73
2023/07/30 02:16:15;;;;;;;2.30;1.95;;;23.10;75.00;;;;;;4993921;28;20483;-72
2023/07/30 02:18:41;;;;;;;2.50;1.65;;;23.10;75.10;;;;;;4993644;28;20065;-73
2023/07/30 02:21:06;;;;;;;2.00;1.65;;;23.00;75.30;;;;;;4993774;28;20077;-72
2023/07/30 02:23:32;;;;;;;1.95;1.60;;;23.00;75.40;;;;;;4994162;28;20027;-72
2023/07/30 02:25:57;;;;;;;3.13;1.77;;;22.90;75.50;;;;;;4993764;28;20141;-72
2023/07/30 02:28:23;;;;;;;2.40;1.73;;;23.00;75.70;;;;;;4993780;28;20030;-72
2023/07/30 02:30:49;;;;;;;2.28;1.60;;;22.90;75.80;;;;;;4993436;28;20030;-72
2023/07/30 02:33:14;;;;;;;2.67;1.95;;;22.90;76.00;;;;;;4993702;28;20109;-72
2023/07/30 02:35:40;;;;;;;3.22;1.95;;;22.90;76.10;;;;;;4975889;28;20030;-75
2023/07/30 02:38:05;;;;;;;2.50;1.90;;;22.90;76.10;;;;;;4993353;28;20026;-72
2023/07/30 02:40:31;;;;;;;2.40;1.73;;;22.80;76.00;;;;;;4993636;28;20030;-72
2023/07/30 02:42:57;;;;;;;2.70;1.70;;;22.90;76.10;;;;;;4992972;28;20026;-73
2023/07/30 02:45:22;;;;;;;2.40;1.60;;;22.90;76.20;;;;;;4993500;28;20026;-72
2023/07/30 02:47:48;;;;;;;1.85;1.60;;;22.90;76.20;;;;;;4992882;28;20470;-72
2023/07/30 02:50:13;;;;;;;2.00;1.70;;;22.90;76.20;;;;;;4993265;28;20033;-72
2023/07/30 02:52:39;;;;;;;1.92;1.60;;;22.80;76.10;;;;;;4993633;28;20057;-72
2023/07/30 02:55:05;;;;;;;4.50;1.90;;;22.80;76.10;;;;;;4993132;28;20050;-72
2023/07/30 02:57:31;;;;;;;3.10;1.73;;;22.80;76.30;;;;;;4993222;28;20113;-72
2023/07/30 02:59:57;;;;;;;4.88;2.13;;;22.80;76.20;;;;;;4993068;28;20026;-72
2023/07/30 03:02:22;;;;;;;1.92;1.50;;;22.80;76.30;;;;;;4993454;28;20108;-72
2023/07/30 03:04:48;;;;;;;2.00;1.55;;;22.80;76.20;;;;;;4993447;28;20034;-73
2023/07/30 03:07:13;;;;;;;2.92;1.60;;;22.80;76.30;;;;;;4997252;28;20069;-73
2023/07/30 03:09:39;;;;;;;1.92;1.63;;;22.80;76.30;;;;;;4997405;28;20066;-72
2023/07/30 03:12:05;;;;;;;1.48;1.38;;;22.80;76.30;;;;;;4999618;28;20038;-72
2023/07/30 03:14:31;;;;;;;2.40;1.90;;;22.80;76.40;;;;;;4997286;28;20030;-72
2023/07/30 03:16:56;;;;;;;3.05;1.90;;;22.80;76.40;;;;;;4997304;28;20423;-73
2023/07/30 03:19:22;;;;;;;2.35;1.60;;;22.80;76.50;;;;;;4997083;28;20030;-72
2023/07/30 03:21:48;;;;;;;2.72;1.80;;;22.80;76.40;;;;;;4996919;28;20024;-73
2023/07/30 03:24:13;;;;;;;2.05;1.63;;;22.80;76.40;;;;;;4997196;28;20483;-72
2023/07/30 03:26:39;;;;;;;1.98;1.52;;;22.80;76.60;;;;;;4996907;28;20068;-72
2023/07/30 03:29:05;;;;;;;2.85;1.70;;;22.80;76.60;;;;;;4996747;28;20066;-72
2023/07/30 03:31:30;;;;;;;2.95;1.77;;;22.80;76.80;;;;;;4961002;28;20476;-72
2023/07/30 03:33:56;;;;;;;2.53;1.90;;;22.80;76.80;;;;;;4977245;28;20031;-72
2023/07/30 03:36:21;;;;;;;2.58;1.60;;;22.70;76.90;;;;;;4977548;28;20031;-72
2023/07/30 03:38:47;;;;;;;2.47;2.05;;;22.70;77.00;;;;;;4976977;28;20119;-72
2023/07/30 03:41:12;;;;;;;2.08;1.58;;;22.70;77.10;;;;;;4977479;28;20491;-72
2023/07/30 03:43:38;;;;;;;2.25;1.75;;;22.70;77.20;;;;;;4976170;28;20027;-72
2023/07/30 03:46:04;;;;;;;2.50;1.77;;;22.70;77.20;;;;;;4976926;28;20478;-72
2023/07/30 03:48:29;;;;;;;4.25;1.80;;;22.70;77.30;;;;;;4976995;28;20488;-70
2023/07/30 03:50:56;;;;;;;2.53;1.95;;;22.70;77.30;;;;;;4976882;28;20109;-72
2023/07/30 03:53:22;;;;;;;1.75;1.45;;;22.70;77.40;;;;;;4976955;28;20026;-72
2023/07/30 03:55:48;;;;;;;1.95;1.77;;;22.70;77.40;;;;;;4990177;28;20022;-72
2023/07/30 03:58:14;;;;;;;3.20;1.95;;;22.70;77.40;;;;;;4996406;28;20034;-71
2023/07/30 04:00:40;;;;;;;2.13;1.77;;;22.70;77.40;;;;;;4996689;28;20038;-72
2023/07/30 04:03:06;;;;;;;2.88;1.98;;;22.70;77.40;;;;;;4996115;28;20034;-72
2023/07/30 04:05:31;;;;;;;2.20;1.77;;;22.70;77.40;;;;;;4995891;28;20023;-71
2023/07/30 04:07:57;;;;;;;3.65;1.88;;;22.70;77.40;;;;;;4995945;28;20026;-72
2023/07/30 04:10:23;;;;;;;2.38;1.70;;;22.70;77.20;;;;;;4996091;28;20046;-72
2023/07/30 04:12:49;;;;;;;2.47;1.90;;;22.70;77.20;;;;;;4995608;28;20066;-74
2023/07/30 04:15:15;;;;;;;3.45;1.95;;;22.70;77.30;;;;;;4996159;28;20026;-72
2023/07/30 04:17:41;;;;;;;1.77;1.65;;;22.70;77.40;;;;;;4994891;28;20037;-72
2023/07/30 04:20:09;;;;;;;2.20;2.00;;;22.80;77.40;;;;;;4995700;28;20110;-72
2023/07/30 04:22:37;;;;;;;1.92;1.70;;;22.70;77.40;;;;;;4996047;28;20497;-72
2023/07/30 04:25:03;;;;;;;2.67;1.77;;;22.70;77.40;;;;;;4995578;28;20053;-72
2023/07/30 04:27:29;;;;;;;3.55;2.00;;;22.80;77.40;;;;;;4995873;28;20022;-72
2023/07/30 04:29:55;;;;;;;3.70;1.67;;;22.80;77.40;;;;;;4995278;28;20475;-72
2023/07/30 04:32:20;;;;;;;1.85;1.58;;;22.80;77.50;;;;;;4995672;28;20033;-72
2023/07/30 04:34:46;;;;;;;3.15;1.90;;;22.80;77.40;;;;;;4995589;28;20034;-72
2023/07/30 04:37:12;;;;;;;2.25;1.77;;;22.80;77.50;;;;;;4995159;28;20034;-72
2023/07/30 04:39:38;;;;;;;3.25;1.80;;;22.80;77.40;;;;;;4995770;28;20030;-72
2023/07/30 04:42:04;;;;;;;3.00;2.10;;;22.80;77.50;;;;;;4995219;28;20019;-72
2023/07/30 04:44:29;;;;;;;3.40;1.88;;;22.80;77.60;;;;;;4995703;28;20023;-72
2023/07/30 04:46:55;;;;;;;2.47;1.73;;;22.80;77.60;;;;;;4995362;28;20057;-72
2023/07/30 04:49:20;;;;;;;4.25;2.10;;;22.90;77.50;;;;;;4995615;28;20031;-72
2023/07/30 04:51:46;;;;;;;1.77;1.63;;;22.80;77.40;;;;;;4995403;28;20471;-72
2023/07/30 04:54:11;;;;;;;3.53;1.85;;;22.90;77.50;;;;;;4995198;28;20133;-72
2023/07/30 04:56:37;;;;;;;3.53;2.05;;;22.90;77.50;;;;;;4995406;28;20022;-72
2023/07/30 04:59:03;;;;;;;2.47;1.92;;;22.90;77.60;;;;;;4994841;28;20034;-72
2023/07/30 05:01:29;;;;;;;2.45;1.67;;;22.90;77.80;;;;;;4995177;28;20027;-72
2023/07/30 05:03:55;;;;;;;3.50;1.70;;;22.90;77.90;;;;;;4995018;28;20033;-72
2023/07/30 05:06:21;;;;;;;1.80;1.63;;;22.90;77.90;;;;;;4995110;28;20074;-71
2023/07/30 05:08:46;;;;;;;2.58;1.80;;;22.90;77.90;;;;;;4995095;28;20028;-71
2023/07/30 05:11:12;;;;;;;4.13;1.95;;;22.90;77.90;;;;;;5006666;28;20851;-72
2023/07/30 05:13:37;;;;;;;2.80;1.90;;;22.90;78.00;;;;;;5013489;28;20026;-71
2023/07/30 05:16:03;;;;;;;2.20;2.00;;;22.90;78.00;;;;;;5014432;28;20034;-72
2023/07/30 05:18:29;;;;;;;2.60;1.80;;;22.90;78.00;;;;;;5014659;28;20462;-71
2023/07/30 05:20:55;;;;;;;2.08;1.88;;;23.00;78.10;;;;;;5014140;28;20060;-72
2023/07/30 05:23:21;;;;;;;3.97;1.90;;;22.90;78.10;;;;;;5014235;28;20498;-71
2023/07/30 05:25:46;;;;;;;2.10;1.80;;;23.00;78.10;;;;;;5014885;28;20026;-71
2023/07/30 05:28:12;;;;;;;3.63;2.03;;;23.00;78.10;;;;;;5013797;28;20026;-72
2023/07/30 05:30:38;;;;;;;2.42;1.65;;;23.00;78.20;;;;;;5012917;28;20034;-71
2023/07/30 05:33:04;;;;;;;3.63;1.83;;;23.00;78.10;;;;;;5013799;28;20030;-71
2023/07/30 05:35:30;;;;;;;2.50;2.00;;;22.90;78.00;;;;;;5014274;28;20030;-72
2023/07/30 05:37:55;;;;;;;4.05;1.80;;;23.00;78.00;;;;;;5013930;28;20034;-73
2023/07/30 05:40:21;;;;;;;3.00;1.80;;;23.00;78.10;;;;;;5014376;28;20060;-72
2023/07/30 05:42:47;;;;;;;2.90;1.67;;;23.00;78.20;;;;;;5014512;28;20033;-72
2023/07/30 05:45:13;;;;;;;2.92;2.00;;;23.00;78.40;;;;;;5013793;28;20025;-72
2023/07/30 05:47:38;;;;;;;2.08;1.70;;;23.00;78.80;;;;;;5014095;28;20061;-72
2023/07/30 05:50:05;;;;;;;2.50;2.00;;;23.00;78.70;;;;;;5013647;28;20471;-72
2023/07/30 05:52:30;;;;;;;2.13;1.92;;;23.00;78.90;;;;;;5014044;28;20083;-72
2023/07/30 05:54:56;;;;;;;2.50;1.90;;;23.00;78.60;;;;;;5013665;28;20466;-79
2023/07/30 05:57:22;;;;;;;4.60;2.50;;;23.00;78.60;;;;;;5013907;28;20037;-71
2023/07/30 05:59:47;;;;;;;5.13;2.10;;;23.00;79.00;;;;;;5013883;28;20049;-71
2023/07/30 06:02:13;;;;;;;2.83;2.03;;;23.00;79.80;;;;;;4995021;28;20037;-72
2023/07/30 06:04:39;;;;;;;2.88;1.90;;;23.00;80.60;;;;;;4994303;28;20081;-72
2023/07/30 06:07:04;;;;;;;2.42;1.77;;;23.00;81.50;;;;;;4975909;28;20050;-72
2023/07/30 06:09:30;;;;;;;3.08;2.08;;;23.00;81.60;;;;;;4994102;28;20129;-72
2023/07/30 06:11:59;;;;;;;2.53;1.77;;;23.00;82.30;;;;;;4993779;28;20026;-72
2023/07/30 06:14:25;;;;;;;2.10;1.70;;;23.10;82.30;;;;;;4993871;28;20027;-72
2023/07/30 06:16:52;;;;;;;2.60;1.90;;;23.00;82.50;;;;;;4993964;28;20080;-72
2023/07/30 06:19:18;;;;;;;3.72;2.25;;;23.00;82.20;;;;;;4993595;28;20112;-72
2023/07/30 06:21:44;;;;;;;4.97;1.77;;;23.00;82.30;;;;;;4976399;28;20065;-72
2023/07/30 06:24:09;;;;;;;3.53;1.90;;;23.00;81.80;;;;;;4993505;28;20041;-72
2023/07/30 06:26:35;;;;;;;2.00;1.80;;;23.00;82.20;;;;;;4993578;28;20026;-72
2023/07/30 06:29:01;;;;;;;4.15;2.15;;;22.90;81.30;;;;;;4993297;28;20125;-72
2023/07/30 06:31:27;;;;;;;2.60;2.17;;;22.90;80.70;;;;;;4993475;28;20030;-72
2023/07/30 06:33:52;;;;;;;2.67;1.80;;;23.00;80.90;;;;;;4992460;28;20352;-72
2023/07/30 06:36:18;;;;;;;2.70;2.08;;;22.90;80.40;;;;;;4993060;28;20041;-72
2023/07/30 06:38:43;;;;;;;3.28;2.05;;;22.90;80.90;;;;;;4993755;28;20026;-72
2023/07/30 06:41:09;;;;;;;3.35;1.70;;;23.00;80.30;;;;;;4992988;28;20033;-72
2023/07/30 06:43:35;;;;;;;2.17;1.60;;;22.90;80.30;;;;;;4993541;28;20026;-72
2023/07/30 06:46:00;;;;;;;2.80;1.73;;;22.90;80.30;;;;;;4993061;28;20389;-80
2023/07/30 06:48:26;;;;;;;2.47;1.88;;;22.90;80.50;;;;;;4993442;28;20041;-72
2023/07/30 06:50:52;;;;;;;2.78;1.73;;;22.80;80.80;;;;;;4993218;28;20135;-72
2023/07/30 06:53:17;;;;;;;6.78;1.85;;;22.80;81.00;;;;;;4993427;28;20475;-71
2023/07/30 06:55:43;;;;;;;2.70;1.95;;;22.80;81.40;;;;;;4993474;28;20109;-71
2023/07/30 06:58:11;;;;;;;3.75;2.00;;;22.80;81.70;;;;;;4993064;28;20463;-71
2023/07/30 07:00:36;;;;;;;1.60;1.45;;;22.80;81.60;;;;;;4993348;28;20031;-72
2023/07/30 07:03:02;;;;;;;2.38;1.48;;;22.80;81.60;;;;;;4992903;28;20092;-77
2023/07/30 07:05:27;;;;;;;1.63;1.23;;;22.70;81.80;;;;;;4993349;28;20066;-72
2023/07/30 07:07:53;;;;;;;1.67;1.10;;;22.70;82.50;;;;;;4992672;28;20054;-72
2023/07/30 07:10:19;;;;;;;1.40;1.23;;;22.60;83.30;;;;;;4992708;28;20106;-72
2023/07/30 07:12:44;;;;;;;1.50;1.08;;;22.50;83.90;;;;;;5009016;28;20079;-73
2023/07/30 07:15:10;;;;;;;1.67;1.15;;;22.50;84.90;;;;;;5012473;28;20080;-72
2023/07/30 07:17:36;;;;;;;1.98;0.90;;;22.40;85.20;;;;;;5012707;28;20387;-72
2023/07/30 07:20:03;;;;;;;3.33;1.40;;;22.30;85.60;;;;;;5012902;28;20030;-72
2023/07/30 07:22:29;;;;;;;4.35;1.13;;;22.30;86.50;;;;;;4995657;28;20057;-72
2023/07/30 07:24:55;;;;;;;2.10;1.27;;;22.20;87.20;;;;;;5012816;28;20116;-72
2023/07/30 07:27:23;;;;;;;1.50;1.17;;;22.20;88.30;;;;;;4994889;28;20030;-72
2023/07/30 07:29:48;;;;;;;2.42;1.30;;;22.10;89.70;;;;;;5012863;28;20038;-73
2023/07/30 07:32:14;;;;;;;2.45;1.30;;;22.10;90.30;;;;;;5012457;28;20477;-73
2023/07/30 07:34:39;;;;;;;1.45;1.23;;;22.10;90.60;;;;;;5010003;28;20034;-73
2023/07/30 07:37:05;;;;;;;1.63;1.20;;;22.00;90.90;;;;;;5012135;28;20026;-74
2023/07/30 07:39:33;;;;;;;1.88;1.35;;;22.00;91.20;;;;;;5012688;28;20140;-73
2023/07/30 07:41:59;;;;;;;1.63;1.20;;;21.90;91.60;;;;;;5012682;28;20026;-72
2023/07/30 07:44:24;;;;;;;1.35;1.20;;;21.90;92.30;;;;;;5011954;28;20276;-72
2023/07/30 07:46:50;;;;;;;1.55;1.20;;;21.80;92.50;;;;;;5012721;28;20378;-71
2023/07/30 07:49:15;;;;;;;2.53;1.27;;;21.80;92.80;;;;;;5012106;28;20033;-73
2023/07/30 07:51:41;;;;;;;1.38;1.27;;;21.80;93.10;;;;;;5014255;28;20037;-73
2023/07/30 07:54:07;;;;;;;1.48;1.38;;;21.70;93.10;;;;;;5015566;28;20037;-73
2023/07/30 07:56:32;;;;;;;1.50;1.40;;;21.70;93.20;;;;;;5016141;28;20049;-73
2023/07/30 07:58:58;;;;;;;2.05;1.30;;;21.70;93.60;;;;;;5015865;28;20419;-72
2023/07/30 08:01:24;;;;;;;1.38;1.27;;;21.70;93.80;;;;;;5015679;28;20514;-73
2023/07/30 08:03:49;;;;;;;1.90;1.40;;;21.70;93.50;;;;;;4998341;28;20037;-72
2023/07/30 08:06:15;;;;;;;1.65;1.40;;;21.80;93.70;;;;;;4995899;28;20051;-72
2023/07/30 08:08:40;;;;;;;2.35;1.42;;;21.80;93.70;;;;;;4996226;28;20069;-72
2023/07/30 08:11:07;;;;;;;1.67;1.40;;;21.80;93.90;;;;;;4996296;28;20467;-71
2023/07/30 08:13:34;;;;;;;2.17;1.40;;;21.80;94.00;;;;;;4995968;28;20023;-72
2023/07/30 08:15:59;;;;;;;3.00;1.30;;;21.90;94.10;;;;;;4996424;28;20451;-71
2023/07/30 08:18:26;;;;;;;1.75;1.40;;;21.90;93.80;;;;;;4995249;28;20027;-71
2023/07/30 08:20:51;;;;;;;1.85;1.50;;;22.00;93.80;;;;;;4996445;28;20034;-70
2023/07/30 08:23:17;;;;;;;1.50;1.40;;;22.00;94.30;;;;;;4995136;28;20034;-71
2023/07/30 08:25:43;;;;;;;1.70;1.58;;;22.10;94.10;;;;;;4995608;28;20027;-70
2023/07/30 08:28:08;;;;;;;2.20;1.70;;;22.10;93.70;;;;;;4995475;28;20080;-78
2023/07/30 08:30:34;;;;;;;3.97;1.98;;;22.10;93.90;;;;;;4995875;28;20436;-71
2023/07/30 08:32:59;;;;;;;2.65;1.80;;;22.20;94.00;;;;;;4995195;28;20034;-71
2023/07/30 08:35:26;;;;;;;2.00;1.65;;;22.20;94.10;;;;;;4994545;28;20073;-71
2023/07/30 08:37:52;;;;;;;2.53;1.67;;;22.30;94.00;;;;;;4995551;28;20027;-71
2023/07/30 08:40:18;;;;;;;2.75;1.58;;;22.30;93.90;;;;;;4995274;28;20034;-71
2023/07/30 08:42:43;;;;;;;2.20;1.55;;;22.40;93.70;;;;;;4995563;28;20073;-71
2023/07/30 08:45:09;;;;;;;1.50;1.40;;;22.50;93.80;;;;;;4995934;28;20026;-72
2023/07/30 08:47:35;;;;;;;3.13;1.75;;;22.70;93.90;;;;;;4995378;28;20532;-72
2023/07/30 08:50:01;;;;;;;1.80;1.70;;;22.80;93.40;;;;;;4995149;28;20117;-72
2023/07/30 08:52:29;;;;;;;4.00;1.92;;;23.00;92.60;;;;;;4995107;28;20066;-72
2023/07/30 08:54:58;;;;;;;1.80;1.50;;;23.10;92.40;;;;;;4995395;28;20033;-72
2023/07/30 08:57:25;;;;;;;2.15;1.73;;;23.20;91.40;;;;;;4995095;28;20022;-72
2023/07/30 09:00:03;;;;;;;4.13;2.00;;;23.20;91.10;;;;;;4995463;28;20475;-72
2023/07/30 09:02:43;;;;;;;4.18;1.80;;;23.30;91.20;;;;;;4996837;28;20065;-72
2023/07/30 09:05:09;;;;;;;2.30;1.60;;;23.40;90.80;;;;;;4995149;28;20041;-72
2023/07/30 09:07:35;;;;;;;2.50;1.80;;;23.60;90.30;;;;;;4994519;28;20133;-72
2023/07/30 09:10:01;;;;;;;1.98;1.58;;;23.80;89.30;;;;;;4994972;28;20031;-71
2023/07/30 09:12:33;;;;;;;2.63;1.65;;;24.10;89.50;;;;;;4994736;28;20037;-72
2023/07/30 09:15:00;;;;;;;2.15;1.63;;;24.40;87.10;;;;;;4995166;28;20031;-71
2023/07/30 09:17:26;;;;;;;2.50;1.45;;;24.60;85.00;;;;;;4994560;28;20046;-72
2023/07/30 09:19:53;;;;;;;1.75;1.40;;;24.70;82.70;;;;;;4977601;28;20101;-72
2023/07/30 09:22:29;;;;;;;2.05;1.50;;;24.90;81.60;;;;;;4994172;28;20525;-72
2023/07/30 09:24:57;;;;;;;1.98;1.52;;;25.10;79.00;;;;;;4994975;28;20089;-71
2023/07/30 09:27:25;;;;;;;2.45;1.45;;;25.20;78.00;;;;;;4994291;28;20088;-71
2023/07/30 09:29:55;;;;;;;1.55;1.40;;;25.10;75.30;;;;;;5012629;28;20049;-71
2023/07/30 09:32:29;;;;;;;1.73;1.25;;;25.10;74.70;;;;;;5013992;28;20037;-72
2023/07/30 09:34:55;;;;;;;2.15;1.50;;;25.10;72.80;;;;;;5014339;28;20092;-72
2023/07/30 09:37:21;;;;;;;1.40;1.10;;;25.20;73.00;;;;;;5013784;28;20029;-72
2023/07/30 09:39:50;;;;;;;1.85;1.50;;;25.20;72.30;;;;;;5013821;28;20463;-72
2023/07/30 09:42:15;;;;;;;1.98;1.30;;;25.30;71.80;;;;;;5013764;28;20025;-72
2023/07/30 09:44:41;;;;;;;1.40;1.10;;;25.30;71.60;;;;;;5014088;28;20450;-72
2023/07/30 09:47:10;;;;;;;2.53;1.23;;;25.40;71.70;;;;;;5013789;28;20026;-72
2023/07/30 09:49:38;;;;;;;2.05;1.52;;;25.40;71.30;;;;;;5013501;28;20038;-72
2023/07/30 09:52:08;;;;;;;1.70;1.40;;;25.50;71.70;;;;;;5014164;28;20026;-73
2023/07/30 09:54:33;;;;;;;2.20;1.50;;;25.60;69.90;;;;;;5013488;28;20037;-72
2023/07/30 09:56:59;;;;;;;1.42;1.00;;;25.70;69.40;;;;;;5013986;28;20034;-72
2023/07/30 09:59:25;;;;;;;2.10;1.02;;;25.80;68.70;;;;;;5013218;28;20038;-72
2023/07/30 10:01:55;;;;;;;3.03;1.40;;;25.90;68.30;;;;;;4995619;28;20034;-72
2023/07/30 10:04:22;;;;;;;1.77;1.15;;;26.00;67.90;;;;;;4993708;28;20413;-71
2023/07/30 10:07:08;;;;;;;1.30;0.93;;;26.10;66.60;;;;;;4994094;28;20042;-72
2023/07/30 10:09:45;;;;;;;1.00;0.95;;;26.20;65.60;;;;;;4993352;28;20034;-71
2023/07/30 10:12:15;;;;;;;2.45;1.10;;;26.30;65.00;;;;;;4993723;28;20034;-73
2023/07/30 10:14:42;;;;;;;1.30;1.15;;;26.50;64.00;;;;;;4992882;28;20057;-72
2023/07/30 10:17:10;;;;;;;1.48;1.00;;;26.50;63.30;;;;;;4993972;28;20109;-71
2023/07/30 10:19:36;;;;;;;1.55;1.20;;;26.50;63.70;;;;;;4993576;28;20034;-73
2023/07/30 10:22:23;;;;;;;1.30;1.20;;;26.50;63.60;;;;;;4976363;28;20030;-73
2023/07/30 10:25:03;;;;;;;1.85;1.30;;;26.40;63.40;;;;;;4993925;28;20108;-71
2023/07/30 10:27:38;;;;;;;1.20;1.10;;;26.30;63.60;;;;;;4993514;28;20037;-72
2023/07/30 10:30:11;;;;;;;2.05;1.13;;;26.20;64.60;;;;;;4993884;28;20125;-72
2023/07/30 10:32:41;;;;;;;2.08;1.45;;;26.10;65.30;;;;;;4993228;28;20026;-72
2023/07/30 10:35:07;;;;;;;2.40;1.23;;;26.00;66.30;;;;;;4993705;28;20031;-72
2023/07/30 10:37:33;;;;;;;1.25;1.10;;;26.10;66.60;;;;;;4993241;28;20046;-73
2023/07/30 10:39:58;;;;;;;1.13;0.93;;;26.20;66.10;;;;;;4993546;28;20026;-72
2023/07/30 10:42:32;;;;;;;1.85;1.13;;;26.30;65.80;;;;;;4992961;28;20033;-73
2023/07/30 10:44:58;;;;;;;4.07;1.75;;;26.40;65.70;;;;;;4993421;28;20029;-72
2023/07/30 10:47:27;;;;;;;1.73;1.27;;;26.40;65.00;;;;;;4993467;28;20030;-71
2023/07/30 10:49:53;;;;;;;2.95;1.25;;;26.40;64.90;;;;;;4993414;28;20046;-72
2023/07/30 10:52:23;;;;;;;2.40;1.13;;;26.40;64.60;;;;;;4993274;28;20031;-77
2023/07/30 10:54:49;;;;;;;3.53;1.60;;;26.40;64.10;;;;;;4993687;28;20026;-71
2023/07/30 10:57:14;;;;;;;2.78;1.63;;;26.30;68.00;;;;;;4993343;28;20379;-72
2023/07/30 10:59:41;;;;;;;6.80;1.63;;;26.10;70.80;;;;;;4992726;28;20487;-71
2023/07/30 11:02:08;;;;;;;5.45;1.70;;;25.80;73.60;;;;;;4995813;28;20042;-72
2023/07/30 11:04:35;;;;;;;3.65;1.60;;;25.60;78.10;;;;;;4992911;28;20022;-72
2023/07/30 11:07:01;;;;;;;2.40;1.65;;;25.30;80.80;;;;;;4975473;28;20054;-71
2023/07/30 11:09:27;;;;;;;2.35;1.80;;;25.00;81.80;;;;;;4992804;28;20050;-71
2023/07/30 11:11:55;;;;;;;3.22;2.03;;;24.90;83.40;;;;;;4993238;28;20118;-71
2023/07/30 11:14:25;;;;;;;2.75;1.75;;;24.80;85.10;;;;;;4993231;28;20455;-75
2023/07/30 11:16:59;;;;;;;2.05;1.85;;;24.70;87.20;;;;;;4993275;28;20026;-71
2023/07/30 11:19:25;;;;;;;1.92;1.70;;;24.70;87.70;;;;;;4992731;28;20038;-72
2023/07/30 11:21:53;;;;;;;4.47;1.95;;;24.60;87.60;;;;;;4993433;28;20030;-71
2023/07/30 11:24:20;;;;;;;2.47;1.70;;;24.60;87.50;;;;;;4993100;28;20147;-73
2023/07/30 11:26:58;;;;;;;1.58;1.48;;;24.60;87.90;;;;;;4995101;28;20063;-72
2023/07/30 11:29:23;;;;;;;4.68;1.70;;;24.60;87.90;;;;;;4996614;28;20045;-77
2023/07/30 11:31:49;;;;;;;3.70;1.60;;;24.70;88.80;;;;;;5003961;28;20030;-75
2023/07/30 11:34:16;;;;;;;3.50;1.90;;;24.80;89.30;;;;;;5016910;28;20061;-74
2023/07/30 11:36:42;;;;;;;5.72;2.13;;;24.90;89.70;;;;;;5015959;28;20501;-81
2023/07/30 11:39:09;;;;;;;3.40;1.88;;;24.90;88.10;;;;;;4999111;28;20037;-75
2023/07/30 11:41:34;;;;;;;2.08;1.15;;;25.00;84.40;;;;;;5016093;28;20030;-76
2023/07/30 11:44:00;;;;;;;1.52;1.30;;;25.10;81.70;;;;;;5018354;28;20032;-79
2023/07/30 11:46:26;;;;;;;3.85;1.20;;;25.10;81.00;;;;;;5014892;28;20116;-76
2023/07/30 11:48:53;;;;;;;2.35;1.30;;;25.20;78.40;;;;;;5016440;28;20022;-78
2023/07/30 11:51:27;;;;;;;2.47;1.45;;;25.30;78.60;;;;;;5018886;28;20379;-76
2023/07/30 11:53:57;;;;;;;1.73;1.00;;;25.30;77.70;;;;;;5016531;28;20116;-76
2023/07/30 11:56:25;;;;;;;1.00;0.85;;;25.40;77.50;;;;;;5015790;28;20105;-73
2023/07/30 11:58:58;;;;;;;1.30;1.00;;;25.50;73.10;;;;;;5000483;28;20371;-80
2023/07/30 12:01:26;;;;;;;8.80;1.00;;;25.50;71.70;;;;;;5013968;28;20015;-80
2023/07/30 12:04:00;;;;;;;1.10;0.85;;;25.60;72.80;;;;;;4999857;28;20046;-78
2023/07/30 12:06:44;;;;;;;1.42;0.98;;;25.70;71.50;;;;;;4997007;28;20047;-75
2023/07/30 12:09:33;;;;;;;2.17;0.70;;;25.80;68.80;;;;;;5000531;28;20380;-81
2023/07/30 12:12:01;;;;;;;1.58;1.00;;;25.90;69.50;;;;;;4998702;28;20125;-82
2023/07/30 12:14:42;;;;;;;1.55;1.00;;;26.00;70.80;;;;;;4999058;28;20485;-78
2023/07/30 12:17:08;;;;;;;1.23;0.90;;;26.10;71.60;;;;;;4997008;28;20475;-75
2023/07/30 12:19:36;;;;;;;1.27;1.05;;;26.20;71.30;;;;;;4996236;28;20037;-75
2023/07/30 12:22:01;;;;;;;0.85;0.85;;;26.30;71.10;;;;;;4996208;28;20085;-77
2023/07/30 12:24:27;;;;;;;1.20;1.10;;;26.30;71.10;;;;;;4995731;28;20026;-75
2023/07/30 12:26:53;;;;;;;1.20;1.10;;;26.40;71.70;;;;;;4996146;28;20117;-82
2023/07/30 12:29:18;;;;;;;1.70;1.27;;;26.40;72.30;;;;;;5003225;28;20117;-78
2023/07/30 12:31:45;;;;;;;1.02;0.93;;;26.40;73.00;;;;;;4995868;28;20054;-75
2023/07/30 12:34:11;;;;;;;1.48;1.17;;;26.40;73.80;;;;;;4996576;28;20113;-80
2023/07/30 12:36:37;;;;;;;1.83;1.20;;;26.50;73.80;;;;;;4994784;28;20064;-74
2023/07/30 12:39:03;;;;;;;1.25;1.00;;;26.40;72.40;;;;;;4994755;28;20035;-76
2023/07/30 12:41:28;;;;;;;1.40;1.30;;;26.40;72.40;;;;;;4995401;28;20037;-75
2023/07/30 12:43:56;;;;;;;1.63;1.20;;;26.40;71.80;;;;;;4995828;28;20030;-75
2023/07/30 12:46:23;;;;;;;2.38;1.20;;;26.20;72.20;;;;;;4995993;28;20459;-76